createdAt,value
2019-03-20T00:02:07.770Z,101273.63
2019-03-20T00:04:34.440Z,101278.39
2019-03-20T00:07:01.234Z,101275.06
2019-03-20T00:09:27.803Z,101272.17
2019-03-20T00:11:54.770Z,101273.05
2019-03-20T00:14:21.463Z,101273.95
2019-03-20T00:16:48.158Z,101266.80
2019-03-20T00:19:14.861Z,101275.77
2019-03-20T00:21:41.640Z,101260.98
2019-03-20T00:24:08.334Z,101272.01
2019-03-20T00:26:34.903Z,101265.19
2019-03-20T00:29:01.600Z,101272.36
2019-03-20T00:31:28.278Z,101266.00
2019-03-20T00:33:54.876Z,101266.92
2019-03-20T00:36:21.551Z,101272.05
2019-03-20T00:38:48.339Z,101270.86
2019-03-20T00:41:14.915Z,101260.67
2019-03-20T00:43:41.700Z,101253.00
2019-03-20T00:46:08.474Z,101258.13
2019-03-20T00:48:35.155Z,101263.33
2019-03-20T00:51:01.939Z,101261.26
2019-03-20T00:53:28.643Z,101271.05
2019-03-20T00:55:55.363Z,101268.09
2019-03-20T00:58:22.054Z,101277.78
2019-03-20T01:00:48.863Z,101277.94
2019-03-20T01:03:15.549Z,101265.45
2019-03-20T01:05:42.235Z,101268.80
2019-03-20T01:08:09.039Z,101265.52
2019-03-20T01:10:35.710Z,101263.84
2019-03-20T01:13:02.499Z,101262.48
2019-03-20T01:15:29.262Z,101261.30
2019-03-20T01:17:55.868Z,101264.38
2019-03-20T01:20:22.654Z,101262.80
2019-03-20T01:22:49.439Z,101264.59
2019-03-20T01:25:16.944Z,101263.31
2019-03-20T01:27:43.717Z,101267.05
2019-03-20T01:30:29.615Z,101257.93
2019-03-20T01:32:56.208Z,101262.48
2019-03-20T01:35:24.060Z,101260.33
2019-03-20T01:37:50.970Z,101263.36
2019-03-20T01:40:17.667Z,101262.41
2019-03-20T01:42:44.267Z,101271.13
2019-03-20T01:45:11.103Z,101273.27
2019-03-20T01:47:37.851Z,101266.72
2019-03-20T01:50:04.785Z,101268.93
2019-03-20T01:52:31.359Z,101274.55
2019-03-20T01:54:58.104Z,101264.28
2019-03-20T01:57:24.801Z,101265.19
2019-03-20T01:59:51.537Z,101272.66
2019-03-20T02:02:18.323Z,101270.28
2019-03-20T02:04:45.124Z,101272.38
2019-03-20T02:07:11.797Z,101276.59
2019-03-20T02:09:38.532Z,101269.86
2019-03-20T02:12:05.299Z,101262.62
2019-03-20T02:14:45.791Z,101273.31
2019-03-20T02:17:16.000Z,101302.66
2019-03-20T02:19:42.931Z,101348.05
2019-03-20T02:22:09.705Z,101277.94
2019-03-20T02:24:36.506Z,101279.73
2019-03-20T02:27:03.272Z,101277.63
2019-03-20T02:29:29.962Z,101274.47
2019-03-20T02:31:56.540Z,101274.72
2019-03-20T02:34:23.138Z,101272.80
2019-03-20T02:36:49.727Z,101273.97
2019-03-20T02:39:16.332Z,101274.03
2019-03-20T02:41:43.009Z,101274.13
2019-03-20T02:44:09.799Z,101274.60
2019-03-20T02:46:36.384Z,101269.09
2019-03-20T02:49:03.186Z,101268.64
2019-03-20T02:51:29.862Z,101277.21
2019-03-20T02:53:56.554Z,101272.62
2019-03-20T02:56:23.690Z,101276.38
2019-03-20T02:58:50.289Z,101279.38
2019-03-20T03:01:16.981Z,101286.70
2019-03-20T03:03:43.550Z,101285.06
2019-03-20T03:06:10.226Z,101295.70
2019-03-20T03:08:36.992Z,101287.94
2019-03-20T03:11:03.807Z,101290.59
2019-03-20T03:13:30.376Z,101286.48
2019-03-20T03:15:57.066Z,101288.27
2019-03-20T03:18:23.778Z,101289.07
2019-03-20T03:20:50.447Z,101279.09
2019-03-20T03:23:17.397Z,101285.36
2019-03-20T03:25:44.098Z,101279.10
2019-03-20T03:28:10.767Z,101277.26
2019-03-20T03:30:37.479Z,101282.41
2019-03-20T03:33:04.353Z,101284.18
2019-03-20T03:35:31.149Z,101288.02
2019-03-20T03:37:57.945Z,101282.52
2019-03-20T03:40:26.536Z,101281.73
2019-03-20T03:42:53.338Z,101284.75
2019-03-20T03:45:20.184Z,101287.30
2019-03-20T03:47:47.006Z,101281.31
2019-03-20T03:50:13.936Z,101283.25
2019-03-20T03:52:41.141Z,101285.02
2019-03-20T03:55:27.592Z,101287.51
2019-03-20T03:57:54.535Z,101283.09
2019-03-20T04:00:21.378Z,101282.50
2019-03-20T04:02:48.154Z,101286.09
2019-03-20T04:05:14.966Z,101288.31
2019-03-20T04:07:41.751Z,101286.91
2019-03-20T04:10:09.467Z,101288.58
2019-03-20T04:12:36.152Z,101284.46
2019-03-20T04:15:03.474Z,101287.05
2019-03-20T04:17:30.249Z,101288.36
2019-03-20T04:19:57.265Z,101284.37
2019-03-20T04:22:24.058Z,101288.35
2019-03-20T04:24:50.760Z,101287.45
2019-03-20T04:27:17.535Z,101288.83
2019-03-20T04:29:44.308Z,101283.70
2019-03-20T04:32:11.522Z,101287.95
2019-03-20T04:34:38.192Z,101285.71
2019-03-20T04:37:04.992Z,101290.34
2019-03-20T04:39:31.670Z,101283.75
2019-03-20T04:41:58.267Z,101288.52
2019-03-20T04:44:24.836Z,101289.91
2019-03-20T04:46:51.539Z,101285.59
2019-03-20T04:49:18.232Z,101283.05
2019-03-20T04:51:45.028Z,101286.66
2019-03-20T04:54:11.609Z,101288.83
2019-03-20T04:56:38.331Z,101290.52
2019-03-20T04:59:05.023Z,101290.33
2019-03-20T05:01:31.720Z,101292.56
2019-03-20T05:03:58.498Z,101299.83
2019-03-20T05:06:25.199Z,101013.06
2019-03-20T05:08:51.870Z,101301.56
2019-03-20T05:11:18.657Z,101305.45
2019-03-20T05:13:45.363Z,101306.75
2019-03-20T05:16:12.055Z,101310.13
2019-03-20T05:18:38.629Z,101305.95
2019-03-20T05:21:05.445Z,101305.96
2019-03-20T05:23:32.025Z,101308.51
2019-03-20T05:25:58.619Z,101312.28
2019-03-20T05:28:25.196Z,101302.94
2019-03-20T05:30:51.926Z,101310.09
2019-03-20T05:33:18.586Z,101313.47
2019-03-20T05:35:45.171Z,101321.52
2019-03-20T05:38:11.837Z,101325.71
2019-03-20T05:40:38.512Z,101329.42
2019-03-20T05:43:05.216Z,101336.19
2019-03-20T05:45:31.991Z,101331.52
2019-03-20T05:47:58.687Z,101336.52
2019-03-20T05:50:25.261Z,101340.74
2019-03-20T05:52:51.853Z,101339.72
2019-03-20T05:55:18.534Z,101340.97
2019-03-20T05:57:45.230Z,101345.03
2019-03-20T06:00:12.741Z,101348.42
2019-03-20T06:02:41.834Z,101354.73
2019-03-20T06:05:08.605Z,101349.14
2019-03-20T06:07:35.196Z,101349.48
2019-03-20T06:10:01.982Z,101355.83
2019-03-20T06:12:28.674Z,101359.21
2019-03-20T06:14:55.344Z,101365.10
2019-03-20T06:17:22.027Z,101357.19
2019-03-20T06:19:48.696Z,101355.16
2019-03-20T06:22:15.403Z,101356.95
2019-03-20T06:24:42.085Z,101362.83
2019-03-20T06:27:08.783Z,101359.42
2019-03-20T06:29:35.441Z,101365.64
2019-03-20T06:32:02.162Z,101369.66
2019-03-20T06:34:28.842Z,101360.23
2019-03-20T06:36:55.456Z,101360.78
2019-03-20T06:39:22.125Z,101360.30
2019-03-20T06:41:48.810Z,101360.39
2019-03-20T06:44:15.391Z,101360.14
2019-03-20T06:46:42.086Z,101361.22
2019-03-20T06:49:08.864Z,101365.91
2019-03-20T06:51:35.451Z,101357.70
2019-03-20T06:54:02.120Z,101357.58
2019-03-20T06:56:28.839Z,101346.17
2019-03-20T06:59:48.569Z,101345.44
2019-03-20T07:02:15.361Z,101341.94
2019-03-20T07:05:05.779Z,101326.97
2019-03-20T07:07:44.147Z,101336.08
2019-03-20T07:10:21.168Z,101339.29
2019-03-20T07:12:47.975Z,101350.72
2019-03-20T07:15:14.635Z,101358.21
2019-03-20T07:17:41.241Z,101352.13
2019-03-20T07:20:08.800Z,101363.47
2019-03-20T07:22:35.438Z,101357.19
2019-03-20T07:25:02.519Z,101359.00
2019-03-20T07:27:29.211Z,101363.99
2019-03-20T07:29:55.878Z,101358.98
2019-03-20T07:32:22.581Z,101359.11
2019-03-20T07:34:49.249Z,101348.80
2019-03-20T07:37:15.927Z,101352.06
2019-03-20T07:39:42.542Z,101342.73
2019-03-20T07:42:09.183Z,101348.30
2019-03-20T07:44:35.871Z,101355.14
2019-03-20T07:47:02.554Z,101358.64
2019-03-20T07:49:29.340Z,101362.69
2019-03-20T07:51:56.027Z,101357.34
2019-03-20T07:54:22.733Z,101371.56
2019-03-20T07:56:49.329Z,101366.59
2019-03-20T07:59:15.917Z,101368.69
2019-03-20T08:01:42.597Z,101365.80
2019-03-20T08:04:09.383Z,101372.44
2019-03-20T08:06:36.051Z,101373.36
2019-03-20T08:09:05.710Z,101385.73
2019-03-20T08:11:32.387Z,101389.28
2019-03-20T08:13:58.973Z,101383.63
2019-03-20T08:16:25.648Z,101377.95
2019-03-20T08:18:52.454Z,101377.82
2019-03-20T08:21:19.330Z,101390.22
2019-03-20T08:23:45.959Z,101404.05
2019-03-20T08:26:12.704Z,101400.11
2019-03-20T08:28:39.736Z,101410.56
2019-03-20T08:31:06.496Z,101406.52
2019-03-20T08:33:33.216Z,101419.31
2019-03-20T08:35:59.785Z,101405.62
2019-03-20T08:38:26.479Z,101413.09
2019-03-20T08:40:53.147Z,101408.61
2019-03-20T08:43:19.761Z,101405.32
2019-03-20T08:45:46.428Z,101409.22
2019-03-20T08:48:13.134Z,101403.76
2019-03-20T08:50:39.906Z,101408.62
2019-03-20T08:53:06.712Z,101409.99
2019-03-20T08:55:33.461Z,101414.88
2019-03-20T08:58:00.209Z,101418.38
2019-03-20T09:00:27.004Z,101412.02
2019-03-20T09:02:53.836Z,101407.27
2019-03-20T09:05:20.625Z,101410.88
2019-03-20T09:07:47.935Z,101406.88
2019-03-20T09:10:16.606Z,101401.64
2019-03-20T09:12:43.391Z,101401.30
2019-03-20T09:15:11.365Z,101401.20
2019-03-20T09:17:38.038Z,101400.66
2019-03-20T09:20:05.303Z,101398.22
2019-03-20T09:22:31.983Z,101394.52
2019-03-20T09:24:58.785Z,101396.57
2019-03-20T09:27:25.373Z,101386.50
2019-03-20T09:29:51.976Z,101388.52
2019-03-20T09:32:18.671Z,101396.16
2019-03-20T09:34:45.470Z,101394.17
2019-03-20T09:37:12.055Z,101390.63
2019-03-20T09:39:38.733Z,101387.27
2019-03-20T09:42:05.497Z,101378.53
2019-03-20T09:44:32.195Z,101383.31
2019-03-20T09:46:58.962Z,101385.88
2019-03-20T09:49:25.551Z,101385.36
2019-03-20T09:51:52.321Z,101388.33
2019-03-20T09:54:19.116Z,101388.53
2019-03-20T09:56:45.913Z,101384.62
2019-03-20T09:59:12.704Z,101390.38
2019-03-20T10:01:39.282Z,101386.42
2019-03-20T10:04:06.071Z,101388.12
2019-03-20T10:06:32.736Z,101386.71
2019-03-20T10:09:01.863Z,101373.13
2019-03-20T10:11:27.894Z,101376.05
2019-03-20T10:13:54.474Z,101371.75
2019-03-20T10:16:21.133Z,101376.42
2019-03-20T10:18:47.815Z,101365.20
2019-03-20T10:21:14.377Z,101362.93
2019-03-20T10:23:40.970Z,101353.48
2019-03-20T10:26:07.658Z,101365.95
2019-03-20T10:28:34.806Z,101353.56
2019-03-20T10:31:01.503Z,101365.39
2019-03-20T10:33:28.076Z,101363.03
2019-03-20T10:35:54.748Z,101356.47
2019-03-20T10:38:21.314Z,101367.73
2019-03-20T10:40:47.996Z,101372.55
2019-03-20T10:43:14.650Z,101376.14
2019-03-20T10:45:41.443Z,101348.31
2019-03-20T10:48:08.113Z,101375.70
2019-03-20T10:50:34.809Z,101377.83
2019-03-20T10:53:01.588Z,101367.28
2019-03-20T10:55:28.366Z,101370.52
2019-03-20T10:57:55.002Z,101369.72
2019-03-20T11:00:21.886Z,101375.90
2019-03-20T11:02:48.671Z,101363.76
2019-03-20T11:05:15.631Z,101366.71
2019-03-20T11:07:42.310Z,101369.08
2019-03-20T11:10:10.003Z,101372.78
2019-03-20T11:12:36.667Z,101371.63
2019-03-20T11:15:04.886Z,101380.13
2019-03-20T11:17:31.539Z,101374.53
2019-03-20T11:19:58.141Z,101383.03
2019-03-20T11:22:24.906Z,101394.45
2019-03-20T11:24:51.730Z,101376.91
2019-03-20T11:27:18.411Z,101391.05
2019-03-20T11:29:45.134Z,101393.08
2019-03-20T11:32:14.334Z,101403.89
2019-03-20T11:34:40.889Z,101379.37
2019-03-20T11:37:07.554Z,101388.29
2019-03-20T11:39:34.377Z,101385.55
2019-03-20T11:42:01.461Z,101391.80
2019-03-20T11:44:28.055Z,101385.05
2019-03-20T11:46:54.859Z,101391.45
2019-03-20T11:49:21.687Z,101389.27
2019-03-20T11:51:48.384Z,101387.88
2019-03-20T11:54:14.979Z,101382.81
2019-03-20T11:56:41.789Z,101382.21
2019-03-20T11:59:08.458Z,101377.33
2019-03-20T12:01:35.256Z,101384.80
2019-03-20T12:04:02.019Z,101396.76
2019-03-20T12:06:28.742Z,101389.78
2019-03-20T12:08:55.312Z,101402.15
2019-03-20T12:11:21.954Z,101390.69
2019-03-20T12:13:48.733Z,101400.83
2019-03-20T12:16:15.427Z,101400.98
2019-03-20T12:18:42.023Z,101398.52
2019-03-20T12:21:08.821Z,101401.36
2019-03-20T12:23:35.504Z,101395.53
2019-03-20T12:26:02.289Z,101391.94
2019-03-20T12:28:28.901Z,101398.60
2019-03-20T12:30:55.565Z,101396.89
2019-03-20T12:33:22.256Z,101393.98
2019-03-20T12:35:49.055Z,101400.06
2019-03-20T12:38:15.839Z,101401.28
2019-03-20T12:40:42.613Z,101396.31
2019-03-20T12:43:09.414Z,101401.75
2019-03-20T12:45:36.214Z,101394.45
2019-03-20T12:48:04.871Z,101396.31
2019-03-20T12:50:31.650Z,101404.86
2019-03-20T12:52:58.472Z,101383.04
2019-03-20T12:55:25.240Z,101402.64
2019-03-20T12:57:52.081Z,101398.81
2019-03-20T13:00:20.228Z,101435.65
2019-03-20T13:02:47.015Z,101407.22
2019-03-20T13:05:13.975Z,101411.30
2019-03-20T13:07:40.755Z,101412.85
2019-03-20T13:10:09.284Z,101412.30
2019-03-20T13:12:35.961Z,101423.90
2019-03-20T13:15:03.405Z,101418.74
2019-03-20T13:17:30.205Z,101416.23
2019-03-20T13:19:56.902Z,101415.71
2019-03-20T13:22:24.878Z,101422.58
2019-03-20T13:24:51.644Z,101418.62
2019-03-20T13:27:18.339Z,101417.80
2019-03-20T13:29:45.009Z,101427.19
2019-03-20T13:32:11.801Z,101426.90
2019-03-20T13:34:38.598Z,101422.21
2019-03-20T13:37:05.395Z,101422.21
2019-03-20T13:39:31.965Z,101401.07
2019-03-20T13:42:00.873Z,101414.33
2019-03-20T13:44:27.444Z,101403.14
2019-03-20T13:46:54.272Z,101410.14
2019-03-20T13:49:20.947Z,101419.22
2019-03-20T13:51:47.669Z,101417.29
2019-03-20T13:54:14.234Z,101415.70
2019-03-20T13:56:41.024Z,101414.39
2019-03-20T13:59:07.717Z,101417.85
2019-03-20T14:01:34.449Z,101418.05
2019-03-20T14:04:01.260Z,101416.80
2019-03-20T14:06:28.103Z,101410.28
2019-03-20T14:08:54.892Z,101413.87
2019-03-20T14:11:21.728Z,101406.95
2019-03-20T14:13:48.417Z,101420.61
2019-03-20T14:16:15.246Z,101419.87
2019-03-20T14:18:42.017Z,101415.65
2019-03-20T14:21:08.773Z,101412.48
2019-03-20T14:23:35.462Z,101416.08
2019-03-20T14:26:02.256Z,101408.68
2019-03-20T14:28:28.863Z,101405.45
2019-03-20T14:30:55.726Z,101407.48
2019-03-20T14:33:22.517Z,101407.70
2019-03-20T14:35:49.298Z,101407.29
2019-03-20T14:38:15.992Z,101416.10
2019-03-20T14:40:42.750Z,101400.78
2019-03-20T14:43:09.631Z,101401.05
2019-03-20T14:45:36.541Z,101404.44
2019-03-20T14:48:04.150Z,101407.40
2019-03-20T14:50:30.955Z,101406.03
2019-03-20T14:52:57.754Z,101402.60
2019-03-20T14:55:24.704Z,101395.52
2019-03-20T14:57:51.459Z,101382.50
2019-03-20T15:00:19.883Z,101399.37
2019-03-20T15:02:46.712Z,101384.90
2019-03-20T15:05:13.688Z,101387.08
2019-03-20T15:07:40.489Z,101390.38
2019-03-20T15:10:08.400Z,101389.97
2019-03-20T15:12:35.175Z,101379.21
2019-03-20T15:15:02.376Z,101382.79
2019-03-20T15:17:29.178Z,101378.34
2019-03-20T15:19:55.772Z,101383.67
2019-03-20T15:22:22.558Z,101378.79
2019-03-20T15:24:49.362Z,101375.59
2019-03-20T15:27:16.072Z,101374.16
2019-03-20T15:29:42.837Z,101376.91
2019-03-20T15:32:09.616Z,101373.75
2019-03-20T15:34:36.207Z,101376.16
2019-03-20T15:37:03.376Z,101375.18
2019-03-20T15:39:30.059Z,101373.10
2019-03-20T15:41:56.739Z,101373.81
2019-03-20T15:44:23.336Z,101365.57
2019-03-20T15:46:50.118Z,101369.30
2019-03-20T15:49:16.921Z,101370.67
2019-03-20T15:51:43.592Z,101366.98
2019-03-20T15:54:10.293Z,101369.76
2019-03-20T15:56:37.082Z,101370.05
2019-03-20T15:59:03.881Z,101359.09
2019-03-20T16:01:30.554Z,101365.59
2019-03-20T16:03:57.353Z,101368.73
2019-03-20T16:06:24.129Z,101373.66
2019-03-20T16:08:50.912Z,101376.05
2019-03-20T16:11:17.591Z,101374.59
2019-03-20T16:13:44.374Z,101373.15
2019-03-20T16:16:11.047Z,101374.66
2019-03-20T16:18:37.843Z,101382.22
2019-03-20T16:21:04.645Z,101383.95
2019-03-20T16:23:31.364Z,101383.83
2019-03-20T16:26:00.903Z,101384.94
2019-03-20T16:28:27.600Z,101381.03
2019-03-20T16:30:54.283Z,101393.24
2019-03-20T16:33:20.957Z,101391.73
2019-03-20T16:35:47.653Z,101393.97
2019-03-20T16:38:14.321Z,101397.77
2019-03-20T16:40:40.999Z,101392.69
2019-03-20T16:43:07.582Z,101394.56
2019-03-20T16:45:34.367Z,101405.61
2019-03-20T16:48:01.136Z,101399.37
2019-03-20T16:50:28.055Z,101402.84
2019-03-20T16:52:54.814Z,101396.63
2019-03-20T16:55:21.592Z,101401.45
2019-03-20T16:57:48.286Z,101401.20
2019-03-20T17:00:22.638Z,101399.89
2019-03-20T17:02:49.445Z,101402.20
2019-03-20T17:05:16.450Z,101406.28
2019-03-20T17:07:43.190Z,101406.64
2019-03-20T17:10:15.552Z,101403.41
2019-03-20T17:12:42.306Z,101411.67
2019-03-20T17:15:13.132Z,101405.66
2019-03-20T17:17:39.811Z,101408.73
2019-03-20T17:20:06.721Z,101412.33
2019-03-20T17:22:41.777Z,101407.69
2019-03-20T17:25:02.133Z,101408.18
2019-03-20T17:27:28.862Z,101404.31
2019-03-20T17:29:55.767Z,101403.40
2019-03-20T17:32:22.548Z,101397.55
2019-03-20T17:34:49.250Z,101399.64
2019-03-20T17:37:16.092Z,101410.02
2019-03-20T17:39:42.881Z,101405.11
2019-03-20T17:42:09.586Z,101410.95
2019-03-20T17:44:36.257Z,101409.38
2019-03-20T17:47:03.060Z,101414.30
2019-03-20T17:49:29.720Z,101416.42
2019-03-20T17:51:56.560Z,101419.16
2019-03-20T17:54:23.235Z,101414.62
2019-03-20T17:56:49.975Z,101409.80
2019-03-20T17:59:16.636Z,101417.72
2019-03-20T18:01:43.348Z,101418.57
2019-03-20T18:04:10.008Z,101419.48
2019-03-20T18:06:36.791Z,101420.88
2019-03-20T18:09:06.532Z,101424.55
2019-03-20T18:11:33.245Z,101425.22
2019-03-20T18:13:59.918Z,101427.00
2019-03-20T18:16:26.602Z,101431.43
2019-03-20T18:18:53.195Z,101435.23
2019-03-20T18:21:19.888Z,101447.03
2019-03-20T18:23:46.445Z,101456.53
2019-03-20T18:26:13.251Z,101455.81
2019-03-20T18:28:39.820Z,101457.59
2019-03-20T18:31:06.538Z,101456.44
2019-03-20T18:33:33.077Z,101466.67
2019-03-20T18:35:59.866Z,101466.10
2019-03-20T18:38:26.532Z,101469.18
2019-03-20T18:40:53.220Z,101477.63
2019-03-20T18:43:20.006Z,101469.48
2019-03-20T18:45:46.678Z,101478.75
2019-03-20T18:48:13.340Z,101478.50
2019-03-20T18:50:40.145Z,101475.94
2019-03-20T18:53:06.906Z,101483.19
2019-03-20T18:55:33.619Z,101476.57
2019-03-20T18:58:00.393Z,101481.41
2019-03-20T19:00:27.186Z,101484.86
2019-03-20T19:02:54.638Z,101480.11
2019-03-20T19:05:27.983Z,101476.76
2019-03-20T19:07:54.891Z,101476.36
2019-03-20T19:10:21.749Z,101476.71
2019-03-20T19:12:48.494Z,101472.73
2019-03-20T19:15:15.444Z,101475.59
2019-03-20T19:17:42.142Z,101483.05
2019-03-20T19:20:09.284Z,101488.33
2019-03-20T19:22:36.050Z,101486.08
2019-03-20T19:25:03.931Z,101485.91
2019-03-20T19:27:30.714Z,101485.81
2019-03-20T19:29:57.410Z,101489.11
2019-03-20T19:32:24.117Z,101487.36
2019-03-20T19:34:50.796Z,101487.56
2019-03-20T19:37:17.374Z,101485.05
2019-03-20T19:39:43.937Z,101486.73
2019-03-20T19:42:19.595Z,101482.48
2019-03-20T19:44:39.089Z,101488.82
2019-03-20T19:47:05.784Z,101487.48
2019-03-20T19:49:32.372Z,101490.22
2019-03-20T19:51:59.069Z,101493.64
2019-03-20T19:54:25.638Z,101495.19
2019-03-20T19:56:53.180Z,101497.23
2019-03-20T19:59:19.859Z,101498.53
2019-03-20T20:01:46.667Z,101493.88
2019-03-20T20:04:13.358Z,101488.53
2019-03-20T20:06:40.041Z,101482.19
2019-03-20T20:09:06.790Z,101476.34
2019-03-20T20:11:33.635Z,101478.18
2019-03-20T20:14:00.413Z,101480.99
2019-03-20T20:16:27.088Z,101478.69
2019-03-20T20:18:53.874Z,101475.15
2019-03-20T20:21:20.629Z,101486.58
2019-03-20T20:23:47.419Z,101487.25
2019-03-20T20:26:14.190Z,101487.58
2019-03-20T20:28:40.973Z,101492.34
2019-03-20T20:31:07.748Z,101494.73
2019-03-20T20:33:34.312Z,101496.49
2019-03-20T20:36:00.976Z,101495.72
2019-03-20T20:38:27.562Z,101494.21
2019-03-20T20:40:54.228Z,101497.92
2019-03-20T20:43:21.011Z,101505.27
2019-03-20T20:45:47.607Z,101503.42
2019-03-20T20:48:14.380Z,101502.11
2019-03-20T20:50:41.072Z,101498.42
2019-03-20T20:53:07.745Z,101495.41
2019-03-20T20:55:35.000Z,101493.30
2019-03-20T20:58:01.699Z,101496.18
2019-03-20T21:00:28.362Z,101492.89
2019-03-20T21:02:55.147Z,101492.89
2019-03-20T21:05:21.923Z,101489.30
2019-03-20T21:07:48.742Z,101486.31
2019-03-20T21:10:15.422Z,101493.12
2019-03-20T21:12:42.790Z,101487.59
2019-03-20T21:15:21.454Z,101488.55
2019-03-20T21:18:12.352Z,101490.95
2019-03-20T21:20:38.979Z,101488.88
2019-03-20T21:23:53.566Z,101489.66
2019-03-20T21:26:20.805Z,101495.00
2019-03-20T21:29:14.431Z,101497.91
2019-03-20T21:31:55.035Z,101491.34
2019-03-20T21:34:57.147Z,101498.12
2019-03-20T21:38:04.984Z,101500.88
2019-03-20T21:40:40.100Z,101502.10
2019-03-20T21:43:43.317Z,101503.20
2019-03-20T21:46:59.851Z,101498.75
2019-03-20T21:49:27.072Z,101501.59
2019-03-20T21:51:54.416Z,101507.77
2019-03-20T21:55:18.166Z,101509.20
2019-03-20T21:57:59.612Z,101515.08
2019-03-20T22:01:23.373Z,101505.66
2019-03-20T22:03:50.713Z,101513.21
2019-03-20T22:06:54.352Z,101511.37
2019-03-20T22:09:51.144Z,101511.61
2019-03-20T22:12:28.586Z,101516.25
2019-03-20T22:15:01.142Z,101517.11
2019-03-20T22:18:21.782Z,101519.82
2019-03-20T22:20:57.192Z,101524.05
2019-03-20T22:24:04.727Z,101524.66
2019-03-20T22:27:21.646Z,101521.33
2019-03-20T22:29:48.866Z,101519.34
2019-03-20T22:33:08.538Z,101516.75
2019-03-20T22:35:45.254Z,101518.58
2019-03-20T22:38:33.719Z,101521.91
2019-03-20T22:41:48.058Z,101522.02
2019-03-20T22:44:15.274Z,101526.05
2019-03-20T22:47:22.414Z,101534.77
2019-03-20T22:50:23.132Z,101534.71
2019-03-20T22:53:29.163Z,101535.05
2019-03-20T22:56:33.526Z,101538.59
2019-03-20T22:59:00.909Z,101538.09
2019-03-20T23:01:55.566Z,101536.02
2019-03-20T23:04:27.543Z,101545.69
2019-03-20T23:06:54.847Z,101540.52
2019-03-20T23:09:22.187Z,101538.95
2019-03-20T23:11:49.584Z,101536.02
2019-03-20T23:14:16.911Z,101543.78
2019-03-20T23:16:44.218Z,101538.84
2019-03-20T23:19:11.567Z,101542.48
2019-03-20T23:21:38.863Z,101545.08
2019-03-20T23:24:06.187Z,101546.14
2019-03-20T23:26:33.530Z,101545.50
2019-03-20T23:29:00.904Z,101553.80
2019-03-20T23:31:28.202Z,101543.17
2019-03-20T23:33:55.418Z,101551.18
2019-03-20T23:36:22.949Z,101546.53
2019-03-20T23:38:50.249Z,101553.29
2019-03-20T23:41:17.604Z,101547.11
2019-03-20T23:43:52.849Z,101553.50
2019-03-20T23:46:14.131Z,101551.15
2019-03-20T23:48:50.993Z,101555.43
2019-03-20T23:51:19.596Z,101556.99
2019-03-20T23:53:51.836Z,101555.25
2019-03-20T23:56:19.231Z,101549.86
2019-03-20T23:58:46.375Z,101545.71
